sensor_id;sensor_type;location;lat;lon;timestamp;pressure;altitude;pressure_sealevel;temperature;humidity
79671;BME280;69137;50.878;8.050;2023-06-22T00:02:13;98564.28;;;19.09;82.45
79671;BME280;69137;50.878;8.050;2023-06-22T00:04:38;98550.91;;;19.03;82.67
79671;BME280;69137;50.878;8.050;2023-06-22T00:07:04;98549.97;;;19.07;82.61
79671;BME280;69137;50.878;8.050;2023-06-22T00:09:31;98553.56;;;19.16;82.28
79671;BME280;69137;50.878;8.050;2023-06-22T00:11:56;98543.50;;;19.20;82.10
79671;BME280;69137;50.878;8.050;2023-06-22T00:14:21;98546.09;;;19.17;82.12
79671;BME280;69137;50.878;8.050;2023-06-22T00:16:47;98547.34;;;19.02;82.50
79671;BME280;69137;50.878;8.050;2023-06-22T00:19:14;98545.38;;;19.03;82.78
79671;BME280;69137;50.878;8.050;2023-06-22T00:21:40;98548.84;;;18.86;83.44
79671;BME280;69137;50.878;8.050;2023-06-22T00:24:05;98542.34;;;18.82;83.53
79671;BME280;69137;50.878;8.050;2023-06-22T00:26:31;98537.63;;;18.82;83.56
79671;BME280;69137;50.878;8.050;2023-06-22T00:28:57;98538.56;;;18.77;83.83
79671;BME280;69137;50.878;8.050;2023-06-22T00:31:22;98532.06;;;18.82;83.58
79671;BME280;69137;50.878;8.050;2023-06-22T00:33:48;98535.16;;;18.81;83.30
79671;BME280;69137;50.878;8.050;2023-06-22T00:36:15;98535.00;;;18.86;83.69
79671;BME280;69137;50.878;8.050;2023-06-22T00:38:44;98539.69;;;18.76;83.63
79671;BME280;69137;50.878;8.050;2023-06-22T00:41:09;98548.19;;;18.80;83.95
79671;BME280;69137;50.878;8.050;2023-06-22T00:43:35;98538.56;;;18.77;83.93
79671;BME280;69137;50.878;8.050;2023-06-22T00:46:01;98538.44;;;18.83;84.01
79671;BME280;69137;50.878;8.050;2023-06-22T00:48:26;98534.53;;;18.84;84.01
79671;BME280;69137;50.878;8.050;2023-06-22T00:50:52;98543.81;;;18.88;83.44
79671;BME280;69137;50.878;8.050;2023-06-22T00:53:19;98550.25;;;18.97;83.61
79671;BME280;69137;50.878;8.050;2023-06-22T00:55:45;98548.16;;;19.03;83.44
79671;BME280;69137;50.878;8.050;2023-06-22T00:58:17;98551.56;;;18.99;83.29
79671;BME280;69137;50.878;8.050;2023-06-22T01:00:47;98552.94;;;18.88;83.47
79671;BME280;69137;50.878;8.050;2023-06-22T01:03:12;98564.66;;;18.85;83.80
79671;BME280;69137;50.878;8.050;2023-06-22T01:05:38;98563.66;;;18.81;83.99
79671;BME280;69137;50.878;8.050;2023-06-22T01:08:11;98568.34;;;18.81;84.04
79671;BME280;69137;50.878;8.050;2023-06-22T01:10:44;98567.53;;;18.80;83.97
79671;BME280;69137;50.878;8.050;2023-06-22T01:13:29;98568.75;;;18.88;83.78
79671;BME280;69137;50.878;8.050;2023-06-22T01:16:02;98580.94;;;18.87;83.62
79671;BME280;69137;50.878;8.050;2023-06-22T01:18:30;98570.13;;;18.99;83.15
79671;BME280;69137;50.878;8.050;2023-06-22T01:20:57;98566.84;;;18.97;83.20
79671;BME280;69137;50.878;8.050;2023-06-22T01:24:26;98555.41;;;18.90;83.51
79671;BME280;69137;50.878;8.050;2023-06-22T01:29:08;98551.19;;;18.92;83.17
79671;BME280;69137;50.878;8.050;2023-06-22T01:31:39;98542.00;;;18.83;83.79
79671;BME280;69137;50.878;8.050;2023-06-22T01:34:06;98556.22;;;18.68;84.61
79671;BME280;69137;50.878;8.050;2023-06-22T01:36:34;98554.91;;;18.65;84.74
79671;BME280;69137;50.878;8.050;2023-06-22T01:39:00;98558.00;;;18.86;83.57
79671;BME280;69137;50.878;8.050;2023-06-22T01:41:29;98547.78;;;18.95;83.50
79671;BME280;69137;50.878;8.050;2023-06-22T01:43:55;98552.94;;;18.88;83.63
79671;BME280;69137;50.878;8.050;2023-06-22T01:46:21;98552.13;;;18.88;83.57
79671;BME280;69137;50.878;8.050;2023-06-22T01:48:47;98546.78;;;18.91;83.31
79671;BME280;69137;50.878;8.050;2023-06-22T01:51:13;98543.81;;;18.88;83.51
79671;BME280;69137;50.878;8.050;2023-06-22T01:53:39;98539.88;;;18.80;83.77
79671;BME280;69137;50.878;8.050;2023-06-22T01:56:04;98551.31;;;18.65;84.45
79671;BME280;69137;50.878;8.050;2023-06-22T01:58:31;98545.34;;;18.71;84.27
79671;BME280;69137;50.878;8.050;2023-06-22T02:01:23;98559.47;;;18.70;84.42
79671;BME280;69137;50.878;8.050;2023-06-22T02:04:24;98563.91;;;18.71;84.54
79671;BME280;69137;50.878;8.050;2023-06-22T02:06:55;98554.03;;;18.79;84.50
79671;BME280;69137;50.878;8.050;2023-06-22T02:09:22;98558.53;;;18.74;84.44
79671;BME280;69137;50.878;8.050;2023-06-22T02:11:50;98561.59;;;18.73;84.59
79671;BME280;69137;50.878;8.050;2023-06-22T02:14:21;98566.75;;;18.80;84.85
79671;BME280;69137;50.878;8.050;2023-06-22T02:16:47;98567.53;;;18.80;86.91
79671;BME280;69137;50.878;8.050;2023-06-22T02:19:12;98571.19;;;18.89;86.64
79671;BME280;69137;50.878;8.050;2023-06-22T02:21:41;98562.22;;;18.84;86.79
79671;BME280;69137;50.878;8.050;2023-06-22T02:24:06;98560.63;;;18.69;87.68
79671;BME280;69137;50.878;8.050;2023-06-22T02:26:32;98546.41;;;18.62;87.00
79671;BME280;69137;50.878;8.050;2023-06-22T02:28:58;98543.75;;;18.56;89.27
79671;BME280;69137;50.878;8.050;2023-06-22T02:31:23;98537.28;;;18.61;89.08
79671;BME280;69137;50.878;8.050;2023-06-22T02:33:56;98530.19;;;18.69;89.25
79671;BME280;69137;50.878;8.050;2023-06-22T02:36:23;98531.94;;;18.65;88.96
79671;BME280;69137;50.878;8.050;2023-06-22T02:38:49;98534.22;;;18.63;88.75
79671;BME280;69137;50.878;8.050;2023-06-22T02:41:16;98532.44;;;18.67;88.94
79671;BME280;69137;50.878;8.050;2023-06-22T02:43:44;98524.72;;;18.77;88.84
79671;BME280;69137;50.878;8.050;2023-06-22T02:46:10;98524.81;;;18.72;89.18
79671;BME280;69137;50.878;8.050;2023-06-22T02:48:36;98517.66;;;18.71;89.00
79671;BME280;69137;50.878;8.050;2023-06-22T02:51:01;98517.03;;;18.74;89.12
79671;BME280;69137;50.878;8.050;2023-06-22T02:53:27;98513.59;;;18.69;88.21
79671;BME280;69137;50.878;8.050;2023-06-22T02:55:52;98513.66;;;18.77;88.75
79671;BME280;69137;50.878;8.050;2023-06-22T02:58:18;98517.44;;;18.82;88.49
79671;BME280;69137;50.878;8.050;2023-06-22T03:00:43;98523.78;;;18.82;88.29
79671;BME280;69137;50.878;8.050;2023-06-22T03:03:08;98531.78;;;18.84;88.84
79671;BME280;69137;50.878;8.050;2023-06-22T03:05:34;98522.38;;;18.71;89.60
79671;BME280;69137;50.878;8.050;2023-06-22T03:08:00;98519.69;;;18.57;90.44
79671;BME280;69137;50.878;8.050;2023-06-22T03:10:26;98523.84;;;18.46;90.64
79671;BME280;69137;50.878;8.050;2023-06-22T03:12:51;98518.25;;;18.37;92.17
79671;BME280;69137;50.878;8.050;2023-06-22T03:15:16;98516.94;;;18.34;92.10
79671;BME280;69137;50.878;8.050;2023-06-22T03:17:42;98524.09;;;18.36;92.34
79671;BME280;69137;50.878;8.050;2023-06-22T03:20:09;98527.38;;;18.38;92.25
79671;BME280;69137;50.878;8.050;2023-06-22T03:22:40;98542.41;;;18.45;92.28
79671;BME280;69137;50.878;8.050;2023-06-22T03:25:07;98551.81;;;18.44;92.15
79671;BME280;69137;50.878;8.050;2023-06-22T03:27:42;98576.66;;;18.58;92.16
79671;BME280;69137;50.878;8.050;2023-06-22T03:30:10;98577.09;;;18.51;92.05
79671;BME280;69137;50.878;8.050;2023-06-22T03:32:36;98576.09;;;18.47;92.17
79671;BME280;69137;50.878;8.050;2023-06-22T03:35:01;98562.75;;;18.27;92.44
79671;BME280;69137;50.878;8.050;2023-06-22T03:37:28;98569.63;;;18.16;93.00
79671;BME280;69137;50.878;8.050;2023-06-22T03:39:54;98559.53;;;18.11;92.28
79671;BME280;69137;50.878;8.050;2023-06-22T03:42:20;98547.28;;;18.26;92.28
79671;BME280;69137;50.878;8.050;2023-06-22T03:44:45;98556.88;;;18.28;92.41
79671;BME280;69137;50.878;8.050;2023-06-22T03:47:11;98554.88;;;18.20;91.81
79671;BME280;69137;50.878;8.050;2023-06-22T03:49:36;98551.81;;;18.22;89.56
79671;BME280;69137;50.878;8.050;2023-06-22T03:52:02;98540.69;;;18.36;88.74
79671;BME280;69137;50.878;8.050;2023-06-22T03:54:29;98544.97;;;18.19;90.76
79671;BME280;69137;50.878;8.050;2023-06-22T03:56:56;98532.97;;;18.24;91.61
79671;BME280;69137;50.878;8.050;2023-06-22T03:59:21;98534.16;;;18.31;91.39
79671;BME280;69137;50.878;8.050;2023-06-22T04:01:47;98531.47;;;18.40;91.51
79671;BME280;69137;50.878;8.050;2023-06-22T04:04:12;98520.19;;;18.37;91.21
79671;BME280;69137;50.878;8.050;2023-06-22T04:06:38;98516.81;;;18.40;91.34
79671;BME280;69137;50.878;8.050;2023-06-22T04:09:05;98517.28;;;18.42;90.69
79671;BME280;69137;50.878;8.050;2023-06-22T04:11:30;98507.19;;;18.37;91.36
79671;BME280;69137;50.878;8.050;2023-06-22T04:13:56;98517.28;;;18.42;91.25
79671;BME280;69137;50.878;8.050;2023-06-22T04:16:21;98509.34;;;18.40;91.56
79671;BME280;69137;50.878;8.050;2023-06-22T04:18:47;98522.66;;;18.38;91.47
79671;BME280;69137;50.878;8.050;2023-06-22T04:21:13;98522.53;;;18.43;91.28
79671;BME280;69137;50.878;8.050;2023-06-22T04:23:38;98523.34;;;18.44;91.59
79671;BME280;69137;50.878;8.050;2023-06-22T04:26:04;98517.69;;;18.49;91.42
79671;BME280;69137;50.878;8.050;2023-06-22T04:28:30;98529.88;;;18.48;91.92
79671;BME280;69137;50.878;8.050;2023-06-22T04:31:00;98528.31;;;18.55;91.83
79671;BME280;69137;50.878;8.050;2023-06-22T04:33:27;98522.13;;;18.59;91.70
79671;BME280;69137;50.878;8.050;2023-06-22T04:35:52;98510.91;;;18.55;91.73
79671;BME280;69137;50.878;8.050;2023-06-22T04:38:18;98515.16;;;18.61;91.97
79671;BME280;69137;50.878;8.050;2023-06-22T04:40:43;98507.88;;;18.65;92.17
79671;BME280;69137;50.878;8.050;2023-06-22T04:43:08;98516.19;;;18.65;92.25
79671;BME280;69137;50.878;8.050;2023-06-22T04:45:35;98507.75;;;18.70;92.50
79671;BME280;69137;50.878;8.050;2023-06-22T04:48:03;98505.69;;;18.76;92.57
79671;BME280;69137;50.878;8.050;2023-06-22T04:50:28;98514.66;;;18.82;92.01
79671;BME280;69137;50.878;8.050;2023-06-22T04:52:54;98517.72;;;18.80;91.60
79671;BME280;69137;50.878;8.050;2023-06-22T04:55:20;98511.09;;;18.81;91.76
79671;BME280;69137;50.878;8.050;2023-06-22T04:57:45;98498.22;;;18.85;90.97
79671;BME280;69137;50.878;8.050;2023-06-22T05:00:18;98500.03;;;18.90;91.30
79671;BME280;69137;50.878;8.050;2023-06-22T05:02:48;98508.84;;;18.92;91.02
79671;BME280;69137;50.878;8.050;2023-06-22T05:05:13;98501.88;;;18.94;92.14
79671;BME280;69137;50.878;8.050;2023-06-22T05:07:43;98499.94;;;19.04;91.82
79671;BME280;69137;50.878;8.050;2023-06-22T05:10:10;98496.72;;;19.10;91.64
79671;BME280;69137;50.878;8.050;2023-06-22T05:12:39;98495.13;;;19.18;91.38
79671;BME280;69137;50.878;8.050;2023-06-22T05:15:06;98493.81;;;19.24;90.88
79671;BME280;69137;50.878;8.050;2023-06-22T05:17:32;98491.25;;;19.28;89.82
79671;BME280;69137;50.878;8.050;2023-06-22T05:19:57;98493.88;;;19.33;90.01
79671;BME280;69137;50.878;8.050;2023-06-22T05:22:22;98487.03;;;19.39;89.48
79671;BME280;69137;50.878;8.050;2023-06-22T05:24:48;98486.25;;;19.47;88.70
79671;BME280;69137;50.878;8.050;2023-06-22T05:27:14;98476.97;;;19.52;88.61
79671;BME280;69137;50.878;8.050;2023-06-22T05:29:39;98473.69;;;19.58;88.67
79671;BME280;69137;50.878;8.050;2023-06-22T05:32:05;98466.88;;;19.64;89.28
79671;BME280;69137;50.878;8.050;2023-06-22T05:34:31;98466.91;;;19.73;89.05
79671;BME280;69137;50.878;8.050;2023-06-22T05:36:57;98467.25;;;19.89;88.85
79671;BME280;69137;50.878;8.050;2023-06-22T05:39:24;98470.50;;;20.00;86.67
79671;BME280;69137;50.878;8.050;2023-06-22T05:41:49;98475.56;;;20.06;87.42
79671;BME280;69137;50.878;8.050;2023-06-22T05:44:15;98472.31;;;20.04;87.62
79671;BME280;69137;50.878;8.050;2023-06-22T05:46:43;98467.25;;;19.98;87.92
79671;BME280;69137;50.878;8.050;2023-06-22T05:49:13;98474.91;;;20.10;87.35
79671;BME280;69137;50.878;8.050;2023-06-22T05:51:39;98480.63;;;20.04;88.09
79671;BME280;69137;50.878;8.050;2023-06-22T05:54:05;98482.75;;;20.07;87.27
79671;BME280;69137;50.878;8.050;2023-06-22T05:56:30;98485.34;;;20.13;86.29
79671;BME280;69137;50.878;8.050;2023-06-22T05:58:56;98483.25;;;20.18;86.33
79671;BME280;69137;50.878;8.050;2023-06-22T06:01:21;98480.94;;;20.20;86.47
79671;BME280;69137;50.878;8.050;2023-06-22T06:03:47;98477.84;;;20.30;87.20
79671;BME280;69137;50.878;8.050;2023-06-22T06:06:13;98483.22;;;20.36;87.65
79671;BME280;69137;50.878;8.050;2023-06-22T06:08:39;98483.84;;;20.41;87.13
79671;BME280;69137;50.878;8.050;2023-06-22T06:11:04;98485.31;;;20.65;86.59
79671;BME280;69137;50.878;8.050;2023-06-22T06:13:30;98483.66;;;20.72;85.64
79671;BME280;69137;50.878;8.050;2023-06-22T06:15:56;98483.81;;;20.67;85.30
79671;BME280;69137;50.878;8.050;2023-06-22T06:18:22;98485.47;;;20.68;85.88
79671;BME280;69137;50.878;8.050;2023-06-22T06:20:47;98484.00;;;20.71;85.85
79671;BME280;69137;50.878;8.050;2023-06-22T06:23:13;98484.59;;;20.85;83.54
79671;BME280;69137;50.878;8.050;2023-06-22T06:25:38;98484.72;;;20.98;83.83
79671;BME280;69137;50.878;8.050;2023-06-22T06:28:04;98477.50;;;21.05;84.82
79671;BME280;69137;50.878;8.050;2023-06-22T06:30:30;98486.50;;;21.02;84.91
79671;BME280;69137;50.878;8.050;2023-06-22T06:32:55;98481.72;;;21.11;83.39
79671;BME280;69137;50.878;8.050;2023-06-22T06:35:21;98477.25;;;21.28;81.80
79671;BME280;69137;50.878;8.050;2023-06-22T06:37:49;98483.88;;;21.44;83.75
79671;BME280;69137;50.878;8.050;2023-06-22T06:40:15;98479.56;;;21.55;83.26
79671;BME280;69137;50.878;8.050;2023-06-22T06:42:43;98482.72;;;21.75;81.10
79671;BME280;69137;50.878;8.050;2023-06-22T06:45:16;98483.41;;;21.93;82.80
79671;BME280;69137;50.878;8.050;2023-06-22T06:47:42;98471.50;;;22.04;80.80
79671;BME280;69137;50.878;8.050;2023-06-22T06:50:08;98480.47;;;22.10;81.92
79671;BME280;69137;50.878;8.050;2023-06-22T06:52:34;98480.94;;;22.33;80.14
79671;BME280;69137;50.878;8.050;2023-06-22T06:55:00;98483.50;;;22.38;81.28
79671;BME280;69137;50.878;8.050;2023-06-22T06:57:25;98483.44;;;22.47;80.73
79671;BME280;69137;50.878;8.050;2023-06-22T06:59:57;98486.47;;;22.54;79.75
79671;BME280;69137;50.878;8.050;2023-06-22T07:02:23;98478.00;;;22.51;80.56
79671;BME280;69137;50.878;8.050;2023-06-22T07:04:49;98494.03;;;22.33;80.64
79671;BME280;69137;50.878;8.050;2023-06-22T07:07:15;98492.91;;;22.34;80.77
79671;BME280;69137;50.878;8.050;2023-06-22T07:09:40;98484.25;;;22.48;80.93
79671;BME280;69137;50.878;8.050;2023-06-22T07:12:06;98481.00;;;22.45;81.77
79671;BME280;69137;50.878;8.050;2023-06-22T07:14:32;98479.00;;;22.34;79.64
79671;BME280;69137;50.878;8.050;2023-06-22T07:16:58;98475.16;;;22.38;79.52
79671;BME280;69137;50.878;8.050;2023-06-22T07:19:27;98472.31;;;22.47;79.68
79671;BME280;69137;50.878;8.050;2023-06-22T07:21:53;98459.53;;;22.46;79.36
79671;BME280;69137;50.878;8.050;2023-06-22T07:24:20;98464.19;;;22.54;80.64
79671;BME280;69137;50.878;8.050;2023-06-22T07:26:47;98449.97;;;22.68;80.26
79671;BME280;69137;50.878;8.050;2023-06-22T07:29:13;98448.50;;;22.83;78.48
79671;BME280;69137;50.878;8.050;2023-06-22T07:31:39;98439.97;;;23.13;80.09
79671;BME280;69137;50.878;8.050;2023-06-22T07:34:06;98428.13;;;23.28;79.10
79671;BME280;69137;50.878;8.050;2023-06-22T07:36:32;98434.25;;;23.46;79.41
79671;BME280;69137;50.878;8.050;2023-06-22T07:38:57;98457.47;;;23.62;79.67
79671;BME280;69137;50.878;8.050;2023-06-22T07:41:22;98450.00;;;23.79;76.22
79671;BME280;69137;50.878;8.050;2023-06-22T07:43:48;98447.34;;;23.82;73.02
79671;BME280;69137;50.878;8.050;2023-06-22T07:46:13;98446.59;;;23.97;73.22
79671;BME280;69137;50.878;8.050;2023-06-22T07:48:39;98454.50;;;23.95;70.83
79671;BME280;69137;50.878;8.050;2023-06-22T07:51:06;98441.13;;;24.01;71.38
79671;BME280;69137;50.878;8.050;2023-06-22T07:53:32;98439.81;;;24.11;72.18
79671;BME280;69137;50.878;8.050;2023-06-22T07:55:57;98431.03;;;24.25;71.58
79671;BME280;69137;50.878;8.050;2023-06-22T07:58:23;98423.91;;;24.27;70.83
79671;BME280;69137;50.878;8.050;2023-06-22T08:00:48;98429.78;;;24.38;71.29
79671;BME280;69137;50.878;8.050;2023-06-22T08:03:14;98422.56;;;24.21;70.57
79671;BME280;69137;50.878;8.050;2023-06-22T08:05:40;98417.69;;;24.18;71.41
79671;BME280;69137;50.878;8.050;2023-06-22T08:08:05;98415.72;;;24.18;71.90
79671;BME280;69137;50.878;8.050;2023-06-22T08:10:31;98418.25;;;23.95;72.51
79671;BME280;69137;50.878;8.050;2023-06-22T08:12:56;98404.81;;;24.13;69.25
79671;BME280;69137;50.878;8.050;2023-06-22T08:15:21;98404.56;;;24.18;70.99
79671;BME280;69137;50.878;8.050;2023-06-22T08:17:47;98406.03;;;24.28;70.97
79671;BME280;69137;50.878;8.050;2023-06-22T08:20:12;98407.84;;;24.36;69.58
79671;BME280;69137;50.878;8.050;2023-06-22T08:22:39;98411.44;;;24.37;69.23
79671;BME280;69137;50.878;8.050;2023-06-22T08:25:05;98412.25;;;24.37;68.76
79671;BME280;69137;50.878;8.050;2023-06-22T08:27:31;98410.97;;;24.35;69.38
79671;BME280;69137;50.878;8.050;2023-06-22T08:29:58;98415.03;;;24.37;70.41
79671;BME280;69137;50.878;8.050;2023-06-22T08:32:25;98416.47;;;24.59;66.82
79671;BME280;69137;50.878;8.050;2023-06-22T08:34:55;98414.75;;;24.55;68.65
79671;BME280;69137;50.878;8.050;2023-06-22T08:37:21;98404.38;;;24.87;69.64
79671;BME280;69137;50.878;8.050;2023-06-22T08:39:49;98399.44;;;24.96;68.37
79671;BME280;69137;50.878;8.050;2023-06-22T08:42:15;98396.00;;;25.19;66.11
79671;BME280;69137;50.878;8.050;2023-06-22T08:44:40;98384.91;;;25.22;66.47
79671;BME280;69137;50.878;8.050;2023-06-22T08:47:06;98387.56;;;25.50;62.17
79671;BME280;69137;50.878;8.050;2023-06-22T08:49:31;98384.53;;;25.59;61.95
79671;BME280;69137;50.878;8.050;2023-06-22T08:51:57;98387.56;;;25.70;62.35
79671;BME280;69137;50.878;8.050;2023-06-22T08:54:22;98388.44;;;25.55;64.23
79671;BME280;69137;50.878;8.050;2023-06-22T08:56:48;98383.56;;;25.52;64.77
79671;BME280;69137;50.878;8.050;2023-06-22T08:59:13;98376.34;;;25.86;62.48
79671;BME280;69137;50.878;8.050;2023-06-22T09:01:39;98368.59;;;25.99;60.21
79671;BME280;69137;50.878;8.050;2023-06-22T09:04:04;98361.69;;;25.92;62.32
79671;BME280;69137;50.878;8.050;2023-06-22T09:06:31;98365.44;;;26.00;60.54
79671;BME280;69137;50.878;8.050;2023-06-22T09:08:57;98358.44;;;26.10;59.79
79671;BME280;69137;50.878;8.050;2023-06-22T09:11:25;98351.00;;;25.79;58.71
79671;BME280;69137;50.878;8.050;2023-06-22T09:13:50;98356.50;;;25.75;59.51
79671;BME280;69137;50.878;8.050;2023-06-22T09:16:17;98344.56;;;25.78;59.32
79671;BME280;69137;50.878;8.050;2023-06-22T09:18:45;98347.47;;;25.82;60.03
79671;BME280;69137;50.878;8.050;2023-06-22T09:21:11;98352.84;;;25.90;59.72
79671;BME280;69137;50.878;8.050;2023-06-22T09:23:37;98353.00;;;25.98;58.44
79671;BME280;69137;50.878;8.050;2023-06-22T09:26:02;98345.47;;;25.82;60.03
79671;BME280;69137;50.878;8.050;2023-06-22T09:28:29;98344.41;;;25.87;59.48
79671;BME280;69137;50.878;8.050;2023-06-22T09:30:54;98336.56;;;25.96;58.22
79671;BME280;69137;50.878;8.050;2023-06-22T09:33:23;98332.97;;;26.15;58.15
79671;BME280;69137;50.878;8.050;2023-06-22T09:35:49;98327.16;;;26.27;57.68
79671;BME280;69137;50.878;8.050;2023-06-22T09:38:16;98328.69;;;26.44;57.13
79671;BME280;69137;50.878;8.050;2023-06-22T09:40:41;98320.03;;;26.53;54.98
79671;BME280;69137;50.878;8.050;2023-06-22T09:43:07;98311.28;;;26.54;55.71
79671;BME280;69137;50.878;8.050;2023-06-22T09:45:32;98303.09;;;26.46;56.70
79671;BME280;69137;50.878;8.050;2023-06-22T09:47:58;98304.88;;;26.54;58.45
79671;BME280;69137;50.878;8.050;2023-06-22T09:50:23;98308.91;;;26.56;54.95
79671;BME280;69137;50.878;8.050;2023-06-22T09:52:49;98295.19;;;26.51;54.87
79671;BME280;69137;50.878;8.050;2023-06-22T09:55:20;98289.59;;;26.51;52.79
79671;BME280;69137;50.878;8.050;2023-06-22T09:57:45;98282.13;;;26.36;56.01
79671;BME280;69137;50.878;8.050;2023-06-22T10:00:11;98271.44;;;26.42;55.60
79671;BME280;69137;50.878;8.050;2023-06-22T10:02:39;98270.34;;;26.50;54.68
79671;BME280;69137;50.878;8.050;2023-06-22T10:05:05;98264.75;;;26.27;55.75
79671;BME280;69137;50.878;8.050;2023-06-22T10:07:30;98254.06;;;26.09;55.18
79671;BME280;69137;50.878;8.050;2023-06-22T10:09:56;98259.44;;;26.18;56.33
79671;BME280;69137;50.878;8.050;2023-06-22T10:12:21;98264.75;;;26.27;55.68
79671;BME280;69137;50.878;8.050;2023-06-22T10:14:46;98262.75;;;26.27;55.75
79671;BME280;69137;50.878;8.050;2023-06-22T10:17:12;98256.50;;;26.57;55.33
79671;BME280;69137;50.878;8.050;2023-06-22T10:19:37;98240.31;;;26.70;55.76
79671;BME280;69137;50.878;8.050;2023-06-22T10:22:04;98241.22;;;26.77;54.75
79671;BME280;69137;50.878;8.050;2023-06-22T10:24:30;98236.25;;;26.94;55.27
79671;BME280;69137;50.878;8.050;2023-06-22T10:26:55;98242.97;;;26.89;55.21
79671;BME280;69137;50.878;8.050;2023-06-22T10:29:21;98241.22;;;26.77;54.45
79671;BME280;69137;50.878;8.050;2023-06-22T10:31:46;98252.50;;;26.85;54.48
79671;BME280;69137;50.878;8.050;2023-06-22T10:34:12;98235.84;;;26.69;53.85
79671;BME280;69137;50.878;8.050;2023-06-22T10:36:38;98231.06;;;26.69;55.04
79671;BME280;69137;50.878;8.050;2023-06-22T10:39:03;98232.94;;;26.62;56.36
79671;BME280;69137;50.878;8.050;2023-06-22T10:41:29;98243.09;;;26.47;55.71
79671;BME280;69137;50.878;8.050;2023-06-22T10:43:56;98237.06;;;26.45;55.78
79671;BME280;69137;50.878;8.050;2023-06-22T10:46:21;98226.63;;;26.42;56.28
79671;BME280;69137;50.878;8.050;2023-06-22T10:48:47;98231.72;;;26.36;56.49
79671;BME280;69137;50.878;8.050;2023-06-22T10:51:12;98229.44;;;26.19;56.99
79671;BME280;69137;50.878;8.050;2023-06-22T10:53:37;98224.41;;;26.05;57.61
79671;BME280;69137;50.878;8.050;2023-06-22T10:56:03;98218.19;;;25.92;58.91
79671;BME280;69137;50.878;8.050;2023-06-22T10:58:28;98207.00;;;25.72;59.62
79671;BME280;69137;50.878;8.050;2023-06-22T11:00:54;98208.53;;;25.70;61.47
79671;BME280;69137;50.878;8.050;2023-06-22T11:03:19;98215.03;;;25.55;60.74
79671;BME280;69137;50.878;8.050;2023-06-22T11:05:45;98227.78;;;25.52;61.17
79671;BME280;69137;50.878;8.050;2023-06-22T11:08:13;98256.09;;;25.31;61.88
79671;BME280;69137;50.878;8.050;2023-06-22T11:10:38;98305.50;;;25.43;63.24
79671;BME280;69137;50.878;8.050;2023-06-22T11:13:03;98319.59;;;25.50;59.88
79671;BME280;69137;50.878;8.050;2023-06-22T11:15:30;98329.19;;;25.49;61.90
79671;BME280;69137;50.878;8.050;2023-06-22T11:17:55;98340.97;;;25.58;63.56
79671;BME280;69137;50.878;8.050;2023-06-22T11:20:21;98338.69;;;25.64;65.85
79671;BME280;69137;50.878;8.050;2023-06-22T11:22:46;98326.63;;;25.40;66.18
79671;BME280;69137;50.878;8.050;2023-06-22T11:25:12;98318.81;;;25.14;65.83
79671;BME280;69137;50.878;8.050;2023-06-22T11:27:38;98296.81;;;25.13;68.78
79671;BME280;69137;50.878;8.050;2023-06-22T11:30:04;98276.88;;;24.79;71.34
79671;BME280;69137;50.878;8.050;2023-06-22T11:32:29;98250.06;;;24.11;74.20
79671;BME280;69137;50.878;8.050;2023-06-22T11:34:55;98227.34;;;23.81;77.01
79671;BME280;69137;50.878;8.050;2023-06-22T11:37:20;98242.28;;;23.88;75.25
79671;BME280;69137;50.878;8.050;2023-06-22T11:39:46;98237.44;;;24.01;74.54
79671;BME280;69137;50.878;8.050;2023-06-22T11:42:11;98226.22;;;24.13;74.52
79671;BME280;69137;50.878;8.050;2023-06-22T11:44:36;98220.09;;;24.08;76.40
79671;BME280;69137;50.878;8.050;2023-06-22T11:47:02;98229.28;;;24.08;74.88
79671;BME280;69137;50.878;8.050;2023-06-22T11:49:31;98224.16;;;24.10;75.96
79671;BME280;69137;50.878;8.050;2023-06-22T11:51:56;98217.03;;;24.29;76.33
79671;BME280;69137;50.878;8.050;2023-06-22T11:54:22;98211.91;;;24.31;76.11
79671;BME280;69137;50.878;8.050;2023-06-22T11:56:47;98209.38;;;24.57;70.53
79671;BME280;69137;50.878;8.050;2023-06-22T11:59:13;98192.19;;;24.75;70.75
79671;BME280;69137;50.878;8.050;2023-06-22T12:01:38;98185.72;;;24.71;70.60
79671;BME280;69137;50.878;8.050;2023-06-22T12:04:04;98184.47;;;24.68;76.06
79671;BME280;69137;50.878;8.050;2023-06-22T12:06:32;98190.13;;;24.72;74.64
79671;BME280;69137;50.878;8.050;2023-06-22T12:08:57;98191.19;;;24.83;77.01
79671;BME280;69137;50.878;8.050;2023-06-22T12:11:23;98190.16;;;24.91;74.07
79671;BME280;69137;50.878;8.050;2023-06-22T12:13:48;98203.34;;;24.91;75.00
79671;BME280;69137;50.878;8.050;2023-06-22T12:16:14;98203.81;;;24.77;72.10
79671;BME280;69137;50.878;8.050;2023-06-22T12:18:39;98212.63;;;24.79;72.06
79671;BME280;69137;50.878;8.050;2023-06-22T12:21:04;98234.78;;;24.88;75.69
79671;BME280;69137;50.878;8.050;2023-06-22T12:23:30;98241.69;;;24.42;75.29
79671;BME280;69137;50.878;8.050;2023-06-22T12:25:55;98241.25;;;24.09;74.65
79671;BME280;69137;50.878;8.050;2023-06-22T12:28:21;98222.06;;;24.07;74.35
79671;BME280;69137;50.878;8.050;2023-06-22T12:30:46;98201.81;;;24.10;75.56
79671;BME280;69137;50.878;8.050;2023-06-22T12:33:13;98170.94;;;24.03;74.76
79671;BME280;69137;50.878;8.050;2023-06-22T12:35:38;98157.06;;;24.07;73.55
79671;BME280;69137;50.878;8.050;2023-06-22T12:38:04;98151.16;;;24.08;72.20
79671;BME280;69137;50.878;8.050;2023-06-22T12:40:31;98152.13;;;24.16;74.84
79671;BME280;69137;50.878;8.050;2023-06-22T12:42:58;98133.06;;;24.53;75.06
79671;BME280;69137;50.878;8.050;2023-06-22T12:45:23;98143.78;;;24.67;70.82
79671;BME280;69137;50.878;8.050;2023-06-22T12:47:50;98129.53;;;24.56;69.74
79671;BME280;69137;50.878;8.050;2023-06-22T12:50:15;98126.03;;;24.59;69.71
79671;BME280;69137;50.878;8.050;2023-06-22T12:52:41;98134.66;;;24.70;68.55
79671;BME280;69137;50.878;8.050;2023-06-22T12:55:07;98132.50;;;24.28;66.18
79671;BME280;69137;50.878;8.050;2023-06-22T12:57:33;98101.31;;;23.91;65.43
79671;BME280;69137;50.878;8.050;2023-06-22T12:59:58;98100.13;;;24.08;67.07